createdAt,value
2019-02-23T14:46:26.213Z,6.33
2019-02-23T14:50:51.216Z,4.78
2019-02-23T14:55:18.395Z,5.12
2019-02-23T14:59:50.887Z,7.17
2019-02-23T15:04:04.707Z,5.30
2019-02-23T15:08:29.275Z,4.97
2019-02-23T15:12:47.820Z,6.25
2019-02-23T15:17:15.574Z,6.10
2019-02-23T15:21:50.951Z,6.20
2019-02-23T15:26:12.660Z,6.03
2019-02-23T15:30:29.862Z,7.75
2019-02-23T15:34:57.595Z,4.97
2019-02-23T15:39:37.903Z,6.08
2019-02-23T15:43:44.471Z,6.62
2019-02-23T15:47:57.147Z,5.10
2019-02-23T15:52:01.688Z,6.03
2019-02-23T15:56:05.024Z,5.95
2019-02-23T16:00:09.146Z,6.05
2019-02-23T16:04:12.514Z,5.12
2019-02-23T16:08:15.864Z,5.30
2019-02-23T16:12:19.274Z,5.62
2019-02-23T16:16:22.713Z,5.58
2019-02-23T16:20:26.059Z,5.70
2019-02-23T16:24:29.402Z,5.75
2019-02-23T16:28:32.703Z,5.65
2019-02-23T16:32:36.115Z,5.37
2019-02-23T16:36:39.524Z,5.33
2019-02-23T16:40:42.999Z,6.78
2019-02-23T16:44:46.494Z,5.58
2019-02-23T16:48:49.850Z,5.22
2019-02-23T16:52:53.259Z,5.82
2019-02-23T16:56:56.669Z,6.80
2019-02-23T17:01:00.098Z,7.90
2019-02-23T17:05:03.487Z,5.97
2019-02-23T17:09:06.894Z,5.63
2019-02-23T17:13:10.304Z,5.70
2019-02-23T17:17:13.896Z,5.42
2019-02-23T17:21:17.230Z,6.15
2019-02-23T17:25:20.632Z,5.67
2019-02-23T17:29:24.042Z,6.30
2019-02-23T17:33:28.069Z,9.98
2019-02-23T17:37:31.538Z,7.70
2019-02-23T17:41:34.883Z,7.20
2019-02-23T17:45:38.197Z,7.70
2019-02-23T17:49:41.605Z,7.10
2019-02-23T17:53:45.214Z,8.27
2019-02-23T17:57:48.598Z,7.60
2019-02-23T18:01:52.030Z,8.93
2019-02-23T18:05:55.408Z,8.87
2019-02-23T18:09:58.949Z,9.33
2019-02-23T18:14:02.362Z,9.28
2019-02-23T18:18:05.767Z,8.18
2019-02-23T18:22:09.076Z,9.28
2019-02-23T18:26:18.979Z,8.63
2019-02-23T18:30:17.636Z,11.45
2019-02-23T18:34:21.088Z,8.47
2019-02-23T18:38:24.447Z,9.63
2019-02-23T18:42:27.860Z,9.80
2019-02-23T18:46:31.266Z,12.53
2019-02-23T18:50:34.675Z,13.83
2019-02-23T18:54:38.086Z,12.20
2019-02-23T18:58:41.495Z,9.40
2019-02-23T19:02:44.785Z,9.40
2019-02-23T19:06:49.120Z,9.30
2019-02-23T19:10:52.416Z,11.25
2019-02-23T19:14:55.745Z,11.12
2019-02-23T19:18:59.153Z,10.30
2019-02-23T19:23:02.752Z,9.53
2019-02-23T19:27:06.486Z,11.43
2019-02-23T19:31:09.890Z,11.77
2019-02-23T19:35:13.302Z,10.77
2019-02-23T19:39:16.624Z,11.03
2019-02-23T19:43:20.086Z,10.77
2019-02-23T19:47:23.805Z,10.30
2019-02-23T19:51:27.242Z,10.80
2019-02-23T19:55:30.658Z,12.23
2019-02-23T19:59:33.987Z,13.07
2019-02-23T20:03:38.568Z,12.37
2019-02-23T20:07:41.902Z,12.43
2019-02-23T20:11:45.317Z,8.50
2019-02-23T20:15:48.824Z,10.40
2019-02-23T20:19:52.334Z,10.67
2019-02-23T20:23:55.742Z,11.03
2019-02-23T20:27:59.259Z,12.30
2019-02-23T20:32:02.742Z,11.60
2019-02-23T20:36:06.174Z,12.37
2019-02-23T20:40:09.757Z,9.80
2019-02-23T20:44:13.236Z,9.00
2019-02-23T20:48:16.814Z,10.97
2019-02-23T20:52:20.629Z,12.63
2019-02-23T20:56:23.948Z,12.37
2019-02-23T21:00:27.450Z,13.43
2019-02-23T21:04:31.022Z,13.73
2019-02-23T21:08:34.386Z,14.13
2019-02-23T21:12:37.674Z,8.03
2019-02-23T21:16:40.970Z,9.20
2019-02-23T21:20:44.378Z,10.43
2019-02-23T21:24:47.700Z,10.57
2019-02-23T21:28:51.209Z,11.57
2019-02-23T21:32:54.614Z,11.20
2019-02-23T21:36:58.021Z,10.10
2019-02-23T21:41:01.453Z,11.07
2019-02-23T21:45:07.887Z,11.75
2019-02-23T21:49:11.217Z,12.33
2019-02-23T21:53:14.604Z,14.50
2019-02-23T21:57:22.213Z,13.87
2019-02-23T22:01:23.099Z,13.57
2019-02-23T22:05:26.492Z,17.73
2019-02-23T22:09:29.923Z,11.83
2019-02-23T22:13:33.313Z,12.03
2019-02-23T22:17:36.725Z,12.33
2019-02-23T22:21:40.142Z,14.27
2019-02-23T22:25:43.558Z,13.67
2019-02-23T22:29:46.896Z,15.00
2019-02-23T22:33:50.255Z,15.87
2019-02-23T22:37:53.681Z,15.07
2019-02-23T22:41:58.091Z,16.93
2019-02-23T22:46:01.501Z,15.80
2019-02-23T22:50:07.157Z,19.20
2019-02-23T22:54:10.494Z,18.13
2019-02-23T22:58:13.979Z,18.87
2019-02-23T23:02:17.385Z,18.83
2019-02-23T23:06:20.797Z,19.00
2019-02-23T23:10:24.206Z,18.97
2019-02-23T23:14:27.615Z,18.30
2019-02-23T23:18:31.024Z,18.57
2019-02-23T23:22:34.430Z,17.50
2019-02-23T23:26:37.760Z,18.63
2019-02-23T23:30:41.145Z,17.83
2019-02-23T23:34:44.452Z,17.63
2019-02-23T23:38:47.756Z,17.77
2019-02-23T23:42:57.959Z,18.53
2019-02-23T23:46:56.320Z,19.20
2019-02-23T23:51:00.220Z,19.63
2019-02-23T23:55:03.523Z,19.77
2019-02-23T23:59:08.489Z,17.13
